sensor_id;sensor_type;location;lat;lon;timestamp;P1;durP1;ratioP1;P2;durP2;ratioP2
18592;SDS011;9426;54.118;17.948;2023-02-12T00:02:22;10.53;;;4.70;;
18592;SDS011;9426;54.118;17.948;2023-02-12T00:07:47;12.07;;;4.00;;
18592;SDS011;9426;54.118;17.948;2023-02-12T00:13:22;10.30;;;3.83;;
18592;SDS011;9426;54.118;17.948;2023-02-12T00:18:46;9.73;;;3.80;;
18592;SDS011;9426;54.118;17.948;2023-02-12T00:24:13;11.70;;;3.50;;
18592;SDS011;9426;54.118;17.948;2023-02-12T00:29:41;9.07;;;3.60;;
18592;SDS011;9426;54.118;17.948;2023-02-12T00:35:04;9.17;;;3.10;;
18592;SDS011;9426;54.118;17.948;2023-02-12T00:40:29;14.33;;;3.50;;
18592;SDS011;9426;54.118;17.948;2023-02-12T00:45:55;13.90;;;3.87;;
18592;SDS011;9426;54.118;17.948;2023-02-12T00:51:20;9.37;;;3.53;;
18592;SDS011;9426;54.118;17.948;2023-02-12T00:56:44;11.17;;;3.87;;
18592;SDS011;9426;54.118;17.948;2023-02-12T01:02:09;12.20;;;3.60;;
18592;SDS011;9426;54.118;17.948;2023-02-12T01:07:33;10.20;;;3.50;;
18592;SDS011;9426;54.118;17.948;2023-02-12T01:12:59;11.60;;;3.40;;
18592;SDS011;9426;54.118;17.948;2023-02-12T01:18:25;10.50;;;3.00;;
18592;SDS011;9426;54.118;17.948;2023-02-12T01:23:49;10.37;;;3.07;;
18592;SDS011;9426;54.118;17.948;2023-02-12T01:29:12;12.27;;;2.93;;
18592;SDS011;9426;54.118;17.948;2023-02-12T01:34:38;13.37;;;3.20;;
18592;SDS011;9426;54.118;17.948;2023-02-12T01:40:02;10.77;;;3.27;;
18592;SDS011;9426;54.118;17.948;2023-02-12T01:51:18;8.53;;;3.03;;
18592;SDS011;9426;54.118;17.948;2023-02-12T01:56:44;7.50;;;2.90;;
18592;SDS011;9426;54.118;17.948;2023-02-12T02:02:11;6.90;;;2.60;;
18592;SDS011;9426;54.118;17.948;2023-02-12T02:07:36;7.70;;;3.43;;
18592;SDS011;9426;54.118;17.948;2023-02-12T02:13:01;6.30;;;2.40;;
18592;SDS011;9426;54.118;17.948;2023-02-12T02:18:54;8.57;;;3.57;;
18592;SDS011;9426;54.118;17.948;2023-02-12T02:24:44;8.07;;;3.30;;
18592;SDS011;9426;54.118;17.948;2023-02-12T02:30:34;8.60;;;3.97;;
18592;SDS011;9426;54.118;17.948;2023-02-12T02:36:12;13.17;;;4.50;;
18592;SDS011;9426;54.118;17.948;2023-02-12T02:41:47;9.33;;;3.57;;
18592;SDS011;9426;54.118;17.948;2023-02-12T02:47:19;8.90;;;3.57;;
18592;SDS011;9426;54.118;17.948;2023-02-12T02:52:49;8.27;;;3.50;;
18592;SDS011;9426;54.118;17.948;2023-02-12T02:58:16;10.70;;;3.50;;
18592;SDS011;9426;54.118;17.948;2023-02-12T03:03:46;6.00;;;3.07;;
18592;SDS011;9426;54.118;17.948;2023-02-12T03:09:15;9.57;;;3.23;;
18592;SDS011;9426;54.118;17.948;2023-02-12T03:14:45;15.17;;;4.53;;
18592;SDS011;9426;54.118;17.948;2023-02-12T03:20:16;9.90;;;3.70;;
18592;SDS011;9426;54.118;17.948;2023-02-12T03:25:43;7.60;;;3.23;;
18592;SDS011;9426;54.118;17.948;2023-02-12T03:31:12;9.37;;;3.07;;
18592;SDS011;9426;54.118;17.948;2023-02-12T03:36:45;11.43;;;4.27;;
18592;SDS011;9426;54.118;17.948;2023-02-12T03:42:15;10.67;;;4.27;;
18592;SDS011;9426;54.118;17.948;2023-02-12T03:47:43;14.33;;;5.73;;
18592;SDS011;9426;54.118;17.948;2023-02-12T03:53:12;8.40;;;3.70;;
18592;SDS011;9426;54.118;17.948;2023-02-12T03:58:36;11.83;;;4.10;;
18592;SDS011;9426;54.118;17.948;2023-02-12T04:04:03;11.00;;;3.83;;
18592;SDS011;9426;54.118;17.948;2023-02-12T04:09:29;14.70;;;4.00;;
18592;SDS011;9426;54.118;17.948;2023-02-12T04:14:54;10.43;;;3.50;;
18592;SDS011;9426;54.118;17.948;2023-02-12T04:20:30;8.43;;;3.30;;
18592;SDS011;9426;54.118;17.948;2023-02-12T04:26:07;9.17;;;4.17;;
18592;SDS011;9426;54.118;17.948;2023-02-12T04:31:36;10.93;;;4.10;;
18592;SDS011;9426;54.118;17.948;2023-02-12T04:37:06;10.93;;;4.27;;
18592;SDS011;9426;54.118;17.948;2023-02-12T04:42:41;12.10;;;3.70;;
18592;SDS011;9426;54.118;17.948;2023-02-12T04:48:05;9.07;;;4.60;;
18592;SDS011;9426;54.118;17.948;2023-02-12T04:53:29;10.23;;;4.13;;
18592;SDS011;9426;54.118;17.948;2023-02-12T04:58:54;10.30;;;4.03;;
18592;SDS011;9426;54.118;17.948;2023-02-12T05:04:18;11.83;;;3.50;;
18592;SDS011;9426;54.118;17.948;2023-02-12T05:09:42;11.27;;;4.10;;
18592;SDS011;9426;54.118;17.948;2023-02-12T05:15:07;19.37;;;4.60;;
18592;SDS011;9426;54.118;17.948;2023-02-12T05:20:31;13.97;;;4.37;;
18592;SDS011;9426;54.118;17.948;2023-02-12T05:25:57;12.10;;;4.73;;
18592;SDS011;9426;54.118;17.948;2023-02-12T05:31:23;14.63;;;5.63;;
18592;SDS011;9426;54.118;17.948;2023-02-12T05:36:46;22.13;;;6.30;;
18592;SDS011;9426;54.118;17.948;2023-02-12T05:42:10;14.33;;;5.37;;
18592;SDS011;9426;54.118;17.948;2023-02-12T05:47:35;14.33;;;6.00;;
18592;SDS011;9426;54.118;17.948;2023-02-12T05:52:59;23.00;;;8.70;;
18592;SDS011;9426;54.118;17.948;2023-02-12T05:58:22;27.37;;;11.33;;
18592;SDS011;9426;54.118;17.948;2023-02-12T06:03:48;31.80;;;12.30;;
18592;SDS011;9426;54.118;17.948;2023-02-12T06:09:12;38.60;;;12.93;;
18592;SDS011;9426;54.118;17.948;2023-02-12T06:14:36;38.30;;;13.00;;
18592;SDS011;9426;54.118;17.948;2023-02-12T06:20:04;45.60;;;14.43;;
18592;SDS011;9426;54.118;17.948;2023-02-12T06:25:28;32.37;;;11.80;;
18592;SDS011;9426;54.118;17.948;2023-02-12T06:30:52;27.13;;;9.23;;
18592;SDS011;9426;54.118;17.948;2023-02-12T06:36:17;15.10;;;6.53;;
18592;SDS011;9426;54.118;17.948;2023-02-12T06:41:41;16.40;;;6.23;;
18592;SDS011;9426;54.118;17.948;2023-02-12T06:47:05;17.00;;;6.30;;
18592;SDS011;9426;54.118;17.948;2023-02-12T06:52:30;17.13;;;7.00;;
18592;SDS011;9426;54.118;17.948;2023-02-12T06:57:54;20.00;;;8.07;;
18592;SDS011;9426;54.118;17.948;2023-02-12T07:03:17;17.90;;;9.30;;
18592;SDS011;9426;54.118;17.948;2023-02-12T07:08:43;17.83;;;8.20;;
18592;SDS011;9426;54.118;17.948;2023-02-12T07:14:06;22.03;;;8.60;;
18592;SDS011;9426;54.118;17.948;2023-02-12T07:19:35;13.53;;;7.20;;
18592;SDS011;9426;54.118;17.948;2023-02-12T07:25:00;19.37;;;7.33;;
18592;SDS011;9426;54.118;17.948;2023-02-12T07:30:23;16.07;;;7.40;;
18592;SDS011;9426;54.118;17.948;2023-02-12T07:35:48;21.60;;;8.00;;
18592;SDS011;9426;54.118;17.948;2023-02-12T07:41:13;19.57;;;7.00;;
18592;SDS011;9426;54.118;17.948;2023-02-12T07:46:39;16.17;;;7.00;;
18592;SDS011;9426;54.118;17.948;2023-02-12T07:52:08;17.30;;;6.07;;
18592;SDS011;9426;54.118;17.948;2023-02-12T07:57:35;14.57;;;6.27;;
18592;SDS011;9426;54.118;17.948;2023-02-12T08:02:58;19.70;;;6.90;;
18592;SDS011;9426;54.118;17.948;2023-02-12T08:08:22;21.50;;;7.67;;
18592;SDS011;9426;54.118;17.948;2023-02-12T08:13:48;16.17;;;7.10;;
18592;SDS011;9426;54.118;17.948;2023-02-12T08:19:11;24.20;;;8.00;;
18592;SDS011;9426;54.118;17.948;2023-02-12T08:24:40;19.87;;;8.23;;
18592;SDS011;9426;54.118;17.948;2023-02-12T08:30:06;18.30;;;7.57;;
18592;SDS011;9426;54.118;17.948;2023-02-12T08:35:30;27.47;;;8.97;;
18592;SDS011;9426;54.118;17.948;2023-02-12T08:40:54;18.20;;;8.53;;
18592;SDS011;9426;54.118;17.948;2023-02-12T08:46:20;24.00;;;8.97;;
18592;SDS011;9426;54.118;17.948;2023-02-12T08:51:46;18.67;;;8.43;;
18592;SDS011;9426;54.118;17.948;2023-02-12T08:57:11;21.67;;;8.37;;
18592;SDS011;9426;54.118;17.948;2023-02-12T09:02:36;22.10;;;7.83;;
18592;SDS011;9426;54.118;17.948;2023-02-12T09:08:01;19.83;;;8.57;;
18592;SDS011;9426;54.118;17.948;2023-02-12T09:13:24;26.17;;;9.97;;
18592;SDS011;9426;54.118;17.948;2023-02-12T09:18:50;27.70;;;11.50;;
18592;SDS011;9426;54.118;17.948;2023-02-12T09:24:14;24.13;;;10.67;;
18592;SDS011;9426;54.118;17.948;2023-02-12T09:29:38;21.80;;;10.30;;
18592;SDS011;9426;54.118;17.948;2023-02-12T09:35:03;21.43;;;10.87;;
18592;SDS011;9426;54.118;17.948;2023-02-12T09:40:30;25.53;;;11.33;;
18592;SDS011;9426;54.118;17.948;2023-02-12T09:46:01;28.07;;;12.07;;
18592;SDS011;9426;54.118;17.948;2023-02-12T09:51:31;29.07;;;12.00;;
18592;SDS011;9426;54.118;17.948;2023-02-12T09:56:57;27.43;;;12.17;;
18592;SDS011;9426;54.118;17.948;2023-02-12T10:02:23;28.00;;;11.60;;
18592;SDS011;9426;54.118;17.948;2023-02-12T10:07:55;26.07;;;11.80;;
18592;SDS011;9426;54.118;17.948;2023-02-12T10:13:35;27.27;;;12.57;;
18592;SDS011;9426;54.118;17.948;2023-02-12T10:19:15;21.87;;;9.70;;
18592;SDS011;9426;54.118;17.948;2023-02-12T10:24:58;25.87;;;10.20;;
18592;SDS011;9426;54.118;17.948;2023-02-12T10:30:30;18.67;;;9.20;;
18592;SDS011;9426;54.118;17.948;2023-02-12T10:36:03;17.83;;;9.03;;
18592;SDS011;9426;54.118;17.948;2023-02-12T10:41:50;15.47;;;7.87;;
18592;SDS011;9426;54.118;17.948;2023-02-12T10:47:17;17.33;;;8.07;;
18592;SDS011;9426;54.118;17.948;2023-02-12T10:52:44;16.40;;;7.83;;
18592;SDS011;9426;54.118;17.948;2023-02-12T10:58:19;16.30;;;7.03;;
18592;SDS011;9426;54.118;17.948;2023-02-12T11:03:45;10.13;;;5.60;;
18592;SDS011;9426;54.118;17.948;2023-02-12T11:09:17;9.97;;;5.77;;
18592;SDS011;9426;54.118;17.948;2023-02-12T11:14:52;12.97;;;6.27;;
18592;SDS011;9426;54.118;17.948;2023-02-12T11:20:21;13.67;;;6.17;;
18592;SDS011;9426;54.118;17.948;2023-02-12T11:25:53;15.43;;;7.50;;
18592;SDS011;9426;54.118;17.948;2023-02-12T11:31:21;15.53;;;7.13;;
18592;SDS011;9426;54.118;17.948;2023-02-12T11:36:46;14.70;;;6.70;;
18592;SDS011;9426;54.118;17.948;2023-02-12T11:42:14;14.60;;;7.13;;
18592;SDS011;9426;54.118;17.948;2023-02-12T11:47:41;14.13;;;7.40;;
18592;SDS011;9426;54.118;17.948;2023-02-12T11:53:06;19.10;;;8.23;;
18592;SDS011;9426;54.118;17.948;2023-02-12T11:58:31;18.27;;;6.90;;
18592;SDS011;9426;54.118;17.948;2023-02-12T12:03:57;21.03;;;8.50;;
18592;SDS011;9426;54.118;17.948;2023-02-12T12:09:27;20.33;;;8.23;;
18592;SDS011;9426;54.118;17.948;2023-02-12T12:14:56;18.43;;;8.60;;
18592;SDS011;9426;54.118;17.948;2023-02-12T12:20:46;17.73;;;8.63;;
18592;SDS011;9426;54.118;17.948;2023-02-12T12:26:17;24.90;;;9.57;;
18592;SDS011;9426;54.118;17.948;2023-02-12T12:31:46;17.33;;;8.23;;
18592;SDS011;9426;54.118;17.948;2023-02-12T12:37:17;19.60;;;8.60;;
18592;SDS011;9426;54.118;17.948;2023-02-12T12:42:58;23.10;;;10.17;;
18592;SDS011;9426;54.118;17.948;2023-02-12T12:48:29;21.10;;;9.33;;
18592;SDS011;9426;54.118;17.948;2023-02-12T12:54:07;24.03;;;9.67;;
18592;SDS011;9426;54.118;17.948;2023-02-12T12:59:43;17.70;;;8.77;;
18592;SDS011;9426;54.118;17.948;2023-02-12T13:11:36;19.30;;;8.77;;
18592;SDS011;9426;54.118;17.948;2023-02-12T13:17:08;18.57;;;8.50;;
18592;SDS011;9426;54.118;17.948;2023-02-12T13:22:42;15.83;;;7.80;;
18592;SDS011;9426;54.118;17.948;2023-02-12T13:28:14;13.53;;;6.60;;
18592;SDS011;9426;54.118;17.948;2023-02-12T13:33:46;15.33;;;6.60;;
18592;SDS011;9426;54.118;17.948;2023-02-12T13:39:17;16.20;;;6.90;;
18592;SDS011;9426;54.118;17.948;2023-02-12T13:44:53;16.67;;;6.83;;
18592;SDS011;9426;54.118;17.948;2023-02-12T13:50:27;13.73;;;6.77;;
18592;SDS011;9426;54.118;17.948;2023-02-12T13:56:06;15.73;;;7.07;;
18592;SDS011;9426;54.118;17.948;2023-02-12T14:01:40;12.90;;;5.57;;
18592;SDS011;9426;54.118;17.948;2023-02-12T14:07:09;10.50;;;5.93;;
18592;SDS011;9426;54.118;17.948;2023-02-12T14:12:34;14.57;;;6.17;;
18592;SDS011;9426;54.118;17.948;2023-02-12T14:18:06;15.23;;;6.90;;
18592;SDS011;9426;54.118;17.948;2023-02-12T14:23:52;13.83;;;7.23;;
18592;SDS011;9426;54.118;17.948;2023-02-12T14:29:17;14.53;;;6.93;;
18592;SDS011;9426;54.118;17.948;2023-02-12T14:34:44;16.53;;;7.87;;
18592;SDS011;9426;54.118;17.948;2023-02-12T14:45:53;14.20;;;6.97;;
18592;SDS011;9426;54.118;17.948;2023-02-12T14:51:32;17.17;;;7.00;;
18592;SDS011;9426;54.118;17.948;2023-02-12T14:57:04;17.10;;;7.70;;
18592;SDS011;9426;54.118;17.948;2023-02-12T15:02:31;13.90;;;6.60;;
18592;SDS011;9426;54.118;17.948;2023-02-12T15:08:01;11.93;;;6.27;;
18592;SDS011;9426;54.118;17.948;2023-02-12T15:13:29;12.27;;;6.13;;
18592;SDS011;9426;54.118;17.948;2023-02-12T15:19:00;14.57;;;5.63;;
18592;SDS011;9426;54.118;17.948;2023-02-12T15:24:30;14.30;;;6.60;;
18592;SDS011;9426;54.118;17.948;2023-02-12T15:29:55;13.97;;;6.50;;
18592;SDS011;9426;54.118;17.948;2023-02-12T15:35:21;10.77;;;5.60;;
18592;SDS011;9426;54.118;17.948;2023-02-12T15:40:53;11.83;;;5.67;;
18592;SDS011;9426;54.118;17.948;2023-02-12T15:46:19;12.83;;;5.80;;
18592;SDS011;9426;54.118;17.948;2023-02-12T15:51:48;16.67;;;6.53;;
18592;SDS011;9426;54.118;17.948;2023-02-12T15:57:16;14.80;;;6.47;;
18592;SDS011;9426;54.118;17.948;2023-02-12T16:02:53;16.60;;;6.40;;
18592;SDS011;9426;54.118;17.948;2023-02-12T16:08:17;14.13;;;6.03;;
18592;SDS011;9426;54.118;17.948;2023-02-12T16:13:45;13.30;;;5.77;;
18592;SDS011;9426;54.118;17.948;2023-02-12T16:19:21;12.47;;;5.40;;
18592;SDS011;9426;54.118;17.948;2023-02-12T16:24:58;12.83;;;6.17;;
18592;SDS011;9426;54.118;17.948;2023-02-12T16:30:26;11.73;;;5.60;;
18592;SDS011;9426;54.118;17.948;2023-02-12T16:35:59;14.10;;;6.03;;
18592;SDS011;9426;54.118;17.948;2023-02-12T16:41:24;10.97;;;4.93;;
18592;SDS011;9426;54.118;17.948;2023-02-12T16:46:50;7.50;;;4.77;;
18592;SDS011;9426;54.118;17.948;2023-02-12T16:52:18;12.73;;;5.77;;
18592;SDS011;9426;54.118;17.948;2023-02-12T16:57:49;13.77;;;5.90;;
18592;SDS011;9426;54.118;17.948;2023-02-12T17:03:16;14.27;;;5.80;;
18592;SDS011;9426;54.118;17.948;2023-02-12T17:08:39;12.63;;;5.63;;
18592;SDS011;9426;54.118;17.948;2023-02-12T17:14:04;11.93;;;5.30;;
18592;SDS011;9426;54.118;17.948;2023-02-12T17:19:29;10.40;;;5.83;;
18592;SDS011;9426;54.118;17.948;2023-02-12T17:24:53;11.30;;;4.90;;
18592;SDS011;9426;54.118;17.948;2023-02-12T17:30:18;6.83;;;4.20;;
18592;SDS011;9426;54.118;17.948;2023-02-12T17:35:44;12.10;;;5.00;;
18592;SDS011;9426;54.118;17.948;2023-02-12T17:41:08;13.30;;;6.50;;
18592;SDS011;9426;54.118;17.948;2023-02-12T17:46:33;23.10;;;7.10;;
18592;SDS011;9426;54.118;17.948;2023-02-12T17:51:58;12.87;;;7.17;;
18592;SDS011;9426;54.118;17.948;2023-02-12T17:57:22;11.97;;;6.67;;
18592;SDS011;9426;54.118;17.948;2023-02-12T18:02:59;12.53;;;6.13;;
18592;SDS011;9426;54.118;17.948;2023-02-12T18:08:25;12.33;;;5.90;;
18592;SDS011;9426;54.118;17.948;2023-02-12T18:13:51;9.03;;;4.73;;
18592;SDS011;9426;54.118;17.948;2023-02-12T18:19:16;10.80;;;5.43;;
18592;SDS011;9426;54.118;17.948;2023-02-12T18:24:58;12.73;;;5.63;;
18592;SDS011;9426;54.118;17.948;2023-02-12T18:30:36;14.33;;;7.30;;
18592;SDS011;9426;54.118;17.948;2023-02-12T18:36:14;14.10;;;7.50;;
18592;SDS011;9426;54.118;17.948;2023-02-12T18:41:50;13.87;;;7.70;;
18592;SDS011;9426;54.118;17.948;2023-02-12T18:47:21;15.83;;;7.43;;
18592;SDS011;9426;54.118;17.948;2023-02-12T18:52:45;18.77;;;8.93;;
18592;SDS011;9426;54.118;17.948;2023-02-12T18:58:12;18.93;;;8.57;;
18592;SDS011;9426;54.118;17.948;2023-02-12T19:03:59;20.07;;;8.73;;
18592;SDS011;9426;54.118;17.948;2023-02-12T19:09:30;15.20;;;8.57;;
18592;SDS011;9426;54.118;17.948;2023-02-12T19:14:57;17.30;;;8.47;;
18592;SDS011;9426;54.118;17.948;2023-02-12T19:20:26;19.07;;;8.27;;
18592;SDS011;9426;54.118;17.948;2023-02-12T19:26:00;21.53;;;8.90;;
18592;SDS011;9426;54.118;17.948;2023-02-12T19:31:36;16.70;;;7.93;;
18592;SDS011;9426;54.118;17.948;2023-02-12T19:37:02;19.90;;;9.47;;
18592;SDS011;9426;54.118;17.948;2023-02-12T19:42:32;17.67;;;8.83;;
18592;SDS011;9426;54.118;17.948;2023-02-12T19:48:05;17.93;;;8.13;;
18592;SDS011;9426;54.118;17.948;2023-02-12T19:53:33;17.53;;;8.13;;
18592;SDS011;9426;54.118;17.948;2023-02-12T19:58:56;12.13;;;7.13;;
18592;SDS011;9426;54.118;17.948;2023-02-12T20:04:22;15.73;;;6.93;;
18592;SDS011;9426;54.118;17.948;2023-02-12T20:09:48;16.90;;;8.00;;
18592;SDS011;9426;54.118;17.948;2023-02-12T20:15:12;21.80;;;8.27;;
18592;SDS011;9426;54.118;17.948;2023-02-12T20:20:37;17.07;;;7.90;;
18592;SDS011;9426;54.118;17.948;2023-02-12T20:26:02;18.87;;;7.37;;
18592;SDS011;9426;54.118;17.948;2023-02-12T20:31:27;16.70;;;7.10;;
18592;SDS011;9426;54.118;17.948;2023-02-12T20:36:53;14.67;;;7.20;;
18592;SDS011;9426;54.118;17.948;2023-02-12T20:42:17;22.10;;;7.57;;
18592;SDS011;9426;54.118;17.948;2023-02-12T20:47:40;16.27;;;7.30;;
18592;SDS011;9426;54.118;17.948;2023-02-12T20:53:05;15.77;;;6.70;;
18592;SDS011;9426;54.118;17.948;2023-02-12T20:58:29;20.73;;;7.60;;
18592;SDS011;9426;54.118;17.948;2023-02-12T21:03:53;12.97;;;6.00;;
18592;SDS011;9426;54.118;17.948;2023-02-12T21:09:19;15.97;;;6.37;;
18592;SDS011;9426;54.118;17.948;2023-02-12T21:14:43;20.80;;;7.20;;
18592;SDS011;9426;54.118;17.948;2023-02-12T21:20:06;17.03;;;5.83;;
18592;SDS011;9426;54.118;17.948;2023-02-12T21:25:32;18.13;;;5.83;;
18592;SDS011;9426;54.118;17.948;2023-02-12T21:30:55;14.20;;;5.73;;
18592;SDS011;9426;54.118;17.948;2023-02-12T21:36:20;17.73;;;5.93;;
18592;SDS011;9426;54.118;17.948;2023-02-12T21:41:46;14.77;;;4.97;;
18592;SDS011;9426;54.118;17.948;2023-02-12T21:47:10;13.87;;;4.83;;
18592;SDS011;9426;54.118;17.948;2023-02-12T21:52:34;13.63;;;4.73;;
18592;SDS011;9426;54.118;17.948;2023-02-12T21:57:59;13.47;;;3.90;;
18592;SDS011;9426;54.118;17.948;2023-02-12T22:03:22;18.57;;;3.63;;
18592;SDS011;9426;54.118;17.948;2023-02-12T22:08:46;21.27;;;3.90;;
18592;SDS011;9426;54.118;17.948;2023-02-12T22:14:13;13.53;;;3.07;;
18592;SDS011;9426;54.118;17.948;2023-02-12T22:19:38;13.50;;;3.20;;
18592;SDS011;9426;54.118;17.948;2023-02-12T22:25:03;11.53;;;3.50;;
18592;SDS011;9426;54.118;17.948;2023-02-12T22:30:28;11.40;;;3.27;;
18592;SDS011;9426;54.118;17.948;2023-02-12T22:35:52;9.53;;;3.30;;
18592;SDS011;9426;54.118;17.948;2023-02-12T22:41:16;10.73;;;2.63;;
18592;SDS011;9426;54.118;17.948;2023-02-12T22:46:42;10.57;;;2.83;;
18592;SDS011;9426;54.118;17.948;2023-02-12T22:52:06;6.83;;;2.30;;
18592;SDS011;9426;54.118;17.948;2023-02-12T22:57:29;13.73;;;2.80;;
18592;SDS011;9426;54.118;17.948;2023-02-12T23:02:54;15.93;;;3.00;;
18592;SDS011;9426;54.118;17.948;2023-02-12T23:08:18;8.07;;;2.57;;
18592;SDS011;9426;54.118;17.948;2023-02-12T23:13:42;15.17;;;3.93;;
18592;SDS011;9426;54.118;17.948;2023-02-12T23:19:08;11.10;;;2.40;;
18592;SDS011;9426;54.118;17.948;2023-02-12T23:24:32;13.67;;;2.77;;
18592;SDS011;9426;54.118;17.948;2023-02-12T23:29:56;7.57;;;2.47;;
18592;SDS011;9426;54.118;17.948;2023-02-12T23:35:21;10.07;;;3.07;;
18592;SDS011;9426;54.118;17.948;2023-02-12T23:40:45;9.53;;;2.20;;
18592;SDS011;9426;54.118;17.948;2023-02-12T23:46:09;12.73;;;2.60;;
18592;SDS011;9426;54.118;17.948;2023-02-12T23:51:35;22.87;;;3.73;;
18592;SDS011;9426;54.118;17.948;2023-02-12T23:56:58;12.60;;;3.13;;
